sensor_id;sensor_type;location;lat;lon;timestamp;temperature;humidity
25582;DHT22;13462;50.764;4.332;2022-10-18T00:00:59;16.20;99.90
25582;DHT22;13462;50.764;4.332;2022-10-18T00:03:25;16.30;99.90
25582;DHT22;13462;50.764;4.332;2022-10-18T00:05:51;16.40;99.90
25582;DHT22;13462;50.764;4.332;2022-10-18T00:08:17;16.50;99.90
25582;DHT22;13462;50.764;4.332;2022-10-18T00:10:44;16.40;99.90
25582;DHT22;13462;50.764;4.332;2022-10-18T00:13:09;16.40;99.90
25582;DHT22;13462;50.764;4.332;2022-10-18T00:15:35;16.30;99.90
25582;DHT22;13462;50.764;4.332;2022-10-18T00:18:01;16.20;99.90
25582;DHT22;13462;50.764;4.332;2022-10-18T00:20:26;16.20;99.90
25582;DHT22;13462;50.764;4.332;2022-10-18T00:22:52;16.20;99.90
25582;DHT22;13462;50.764;4.332;2022-10-18T00:25:17;16.10;99.90
25582;DHT22;13462;50.764;4.332;2022-10-18T00:27:43;16.20;99.90
25582;DHT22;13462;50.764;4.332;2022-10-18T00:30:09;16.20;99.90
25582;DHT22;13462;50.764;4.332;2022-10-18T00:32:36;16.20;99.90
25582;DHT22;13462;50.764;4.332;2022-10-18T00:35:03;16.30;99.90
25582;DHT22;13462;50.764;4.332;2022-10-18T00:37:28;16.40;99.90
25582;DHT22;13462;50.764;4.332;2022-10-18T00:39:54;16.40;99.90
25582;DHT22;13462;50.764;4.332;2022-10-18T00:42:20;16.40;99.90
25582;DHT22;13462;50.764;4.332;2022-10-18T00:47:15;16.30;99.90
25582;DHT22;13462;50.764;4.332;2022-10-18T00:49:52;16.40;99.90
25582;DHT22;13462;50.764;4.332;2022-10-18T00:52:23;16.40;99.90
25582;DHT22;13462;50.764;4.332;2022-10-18T00:54:50;16.50;99.90
25582;DHT22;13462;50.764;4.332;2022-10-18T00:57:16;16.50;99.90
25582;DHT22;13462;50.764;4.332;2022-10-18T00:59:43;16.50;99.90
25582;DHT22;13462;50.764;4.332;2022-10-18T01:02:10;16.50;99.90
25582;DHT22;13462;50.764;4.332;2022-10-18T01:04:37;16.50;99.90
25582;DHT22;13462;50.764;4.332;2022-10-18T01:10:16;16.40;99.90
25582;DHT22;13462;50.764;4.332;2022-10-18T01:13:05;16.40;99.90
25582;DHT22;13462;50.764;4.332;2022-10-18T01:21:16;16.20;99.90
25582;DHT22;13462;50.764;4.332;2022-10-18T01:26:31;16.20;99.90
25582;DHT22;13462;50.764;4.332;2022-10-18T01:31:32;16.30;99.90
25582;DHT22;13462;50.764;4.332;2022-10-18T01:34:02;16.20;99.90
25582;DHT22;13462;50.764;4.332;2022-10-18T01:36:33;16.20;99.90
25582;DHT22;13462;50.764;4.332;2022-10-18T01:39:03;16.30;99.90
25582;DHT22;13462;50.764;4.332;2022-10-18T01:41:31;16.30;99.90
25582;DHT22;13462;50.764;4.332;2022-10-18T01:44:01;16.20;99.90
25582;DHT22;13462;50.764;4.332;2022-10-18T01:46:28;16.20;99.90
25582;DHT22;13462;50.764;4.332;2022-10-18T01:48:54;16.30;99.90
25582;DHT22;13462;50.764;4.332;2022-10-18T01:51:28;16.40;99.90
25582;DHT22;13462;50.764;4.332;2022-10-18T01:53:55;16.30;99.90
25582;DHT22;13462;50.764;4.332;2022-10-18T01:56:41;16.20;99.90
25582;DHT22;13462;50.764;4.332;2022-10-18T01:59:18;16.40;99.90
25582;DHT22;13462;50.764;4.332;2022-10-18T02:04:53;16.20;99.90
25582;DHT22;13462;50.764;4.332;2022-10-18T02:07:31;16.30;99.90
25582;DHT22;13462;50.764;4.332;2022-10-18T02:12:31;16.10;99.90
25582;DHT22;13462;50.764;4.332;2022-10-18T02:14:58;16.10;99.90
25582;DHT22;13462;50.764;4.332;2022-10-18T02:17:27;16.10;99.90
25582;DHT22;13462;50.764;4.332;2022-10-18T02:19:55;16.10;99.90
25582;DHT22;13462;50.764;4.332;2022-10-18T02:22:24;16.10;99.90
25582;DHT22;13462;50.764;4.332;2022-10-18T02:24:53;16.10;99.90
25582;DHT22;13462;50.764;4.332;2022-10-18T02:27:20;16.10;99.90
25582;DHT22;13462;50.764;4.332;2022-10-18T02:29:47;16.10;99.90
25582;DHT22;13462;50.764;4.332;2022-10-18T02:35:21;16.20;99.90
25582;DHT22;13462;50.764;4.332;2022-10-18T02:37:50;16.20;99.90
25582;DHT22;13462;50.764;4.332;2022-10-18T02:40:17;16.20;99.90
25582;DHT22;13462;50.764;4.332;2022-10-18T02:42:48;16.10;99.90
25582;DHT22;13462;50.764;4.332;2022-10-18T02:45:14;16.20;99.90
25582;DHT22;13462;50.764;4.332;2022-10-18T02:47:41;16.20;99.90
25582;DHT22;13462;50.764;4.332;2022-10-18T02:50:06;16.20;99.90
25582;DHT22;13462;50.764;4.332;2022-10-18T02:52:32;16.10;99.90
25582;DHT22;13462;50.764;4.332;2022-10-18T02:54:58;16.20;99.90
25582;DHT22;13462;50.764;4.332;2022-10-18T02:57:23;16.20;99.90
25582;DHT22;13462;50.764;4.332;2022-10-18T02:59:49;16.20;99.90
25582;DHT22;13462;50.764;4.332;2022-10-18T03:02:15;16.20;99.90
25582;DHT22;13462;50.764;4.332;2022-10-18T03:04:40;16.20;99.90
25582;DHT22;13462;50.764;4.332;2022-10-18T03:07:06;16.20;99.90
25582;DHT22;13462;50.764;4.332;2022-10-18T03:09:32;16.20;99.90
25582;DHT22;13462;50.764;4.332;2022-10-18T03:11:58;16.10;99.90
25582;DHT22;13462;50.764;4.332;2022-10-18T03:14:24;16.10;99.90
25582;DHT22;13462;50.764;4.332;2022-10-18T03:16:49;16.20;99.90
25582;DHT22;13462;50.764;4.332;2022-10-18T03:19:15;16.20;99.90
25582;DHT22;13462;50.764;4.332;2022-10-18T03:21:41;16.20;99.90
25582;DHT22;13462;50.764;4.332;2022-10-18T03:24:06;16.20;99.90
25582;DHT22;13462;50.764;4.332;2022-10-18T03:26:32;16.20;99.90
25582;DHT22;13462;50.764;4.332;2022-10-18T03:28:57;16.20;99.90
25582;DHT22;13462;50.764;4.332;2022-10-18T03:31:23;16.10;99.90
25582;DHT22;13462;50.764;4.332;2022-10-18T03:33:49;16.20;99.90
25582;DHT22;13462;50.764;4.332;2022-10-18T03:36:14;16.20;99.90
25582;DHT22;13462;50.764;4.332;2022-10-18T03:38:40;16.10;99.90
25582;DHT22;13462;50.764;4.332;2022-10-18T03:41:06;16.20;99.90
25582;DHT22;13462;50.764;4.332;2022-10-18T03:43:32;16.30;99.90
25582;DHT22;13462;50.764;4.332;2022-10-18T03:45:58;16.40;99.90
25582;DHT22;13462;50.764;4.332;2022-10-18T03:48:24;16.30;99.90
25582;DHT22;13462;50.764;4.332;2022-10-18T03:50:50;16.30;99.90
25582;DHT22;13462;50.764;4.332;2022-10-18T03:53:15;16.30;99.90
25582;DHT22;13462;50.764;4.332;2022-10-18T03:55:41;16.20;99.90
25582;DHT22;13462;50.764;4.332;2022-10-18T03:58:06;16.20;99.90
25582;DHT22;13462;50.764;4.332;2022-10-18T04:00:32;16.20;99.90
25582;DHT22;13462;50.764;4.332;2022-10-18T04:02:58;16.20;99.90
25582;DHT22;13462;50.764;4.332;2022-10-18T04:05:24;16.20;99.90
25582;DHT22;13462;50.764;4.332;2022-10-18T04:07:52;16.20;99.90
25582;DHT22;13462;50.764;4.332;2022-10-18T04:10:17;16.20;99.90
25582;DHT22;13462;50.764;4.332;2022-10-18T04:12:43;16.20;99.90
25582;DHT22;13462;50.764;4.332;2022-10-18T04:15:09;16.20;99.90
25582;DHT22;13462;50.764;4.332;2022-10-18T04:17:34;16.20;99.90
25582;DHT22;13462;50.764;4.332;2022-10-18T04:20:00;16.20;99.90
25582;DHT22;13462;50.764;4.332;2022-10-18T04:22:26;16.20;99.90
25582;DHT22;13462;50.764;4.332;2022-10-18T04:24:51;16.20;99.90
25582;DHT22;13462;50.764;4.332;2022-10-18T04:27:18;16.20;99.90
25582;DHT22;13462;50.764;4.332;2022-10-18T04:29:43;16.20;99.90
25582;DHT22;13462;50.764;4.332;2022-10-18T04:32:09;16.20;99.90
25582;DHT22;13462;50.764;4.332;2022-10-18T04:34:35;16.20;99.90
25582;DHT22;13462;50.764;4.332;2022-10-18T04:37:00;16.30;99.90
25582;DHT22;13462;50.764;4.332;2022-10-18T04:39:26;16.20;99.90
25582;DHT22;13462;50.764;4.332;2022-10-18T04:41:51;16.30;99.90
25582;DHT22;13462;50.764;4.332;2022-10-18T04:44:17;16.30;99.90
25582;DHT22;13462;50.764;4.332;2022-10-18T04:46:42;16.30;99.90
25582;DHT22;13462;50.764;4.332;2022-10-18T04:49:08;16.20;99.90
25582;DHT22;13462;50.764;4.332;2022-10-18T04:51:34;16.20;99.90
25582;DHT22;13462;50.764;4.332;2022-10-18T04:53:59;16.20;99.90
25582;DHT22;13462;50.764;4.332;2022-10-18T04:56:25;16.10;99.90
25582;DHT22;13462;50.764;4.332;2022-10-18T04:58:50;16.10;99.90
25582;DHT22;13462;50.764;4.332;2022-10-18T05:01:16;16.10;99.90
25582;DHT22;13462;50.764;4.332;2022-10-18T05:03:43;16.10;99.90
25582;DHT22;13462;50.764;4.332;2022-10-18T05:06:09;16.00;99.90
25582;DHT22;13462;50.764;4.332;2022-10-18T05:08:35;16.10;99.90
25582;DHT22;13462;50.764;4.332;2022-10-18T05:11:02;16.10;99.90
25582;DHT22;13462;50.764;4.332;2022-10-18T05:13:28;16.10;99.90
25582;DHT22;13462;50.764;4.332;2022-10-18T05:15:54;16.20;99.90
25582;DHT22;13462;50.764;4.332;2022-10-18T05:18:20;16.10;99.90
25582;DHT22;13462;50.764;4.332;2022-10-18T05:20:46;16.20;99.90
25582;DHT22;13462;50.764;4.332;2022-10-18T05:23:11;16.10;99.90
25582;DHT22;13462;50.764;4.332;2022-10-18T05:25:38;16.00;99.90
25582;DHT22;13462;50.764;4.332;2022-10-18T05:28:04;16.10;99.90
25582;DHT22;13462;50.764;4.332;2022-10-18T05:30:30;16.10;99.90
25582;DHT22;13462;50.764;4.332;2022-10-18T05:32:55;16.00;99.90
25582;DHT22;13462;50.764;4.332;2022-10-18T05:35:21;16.00;99.90
25582;DHT22;13462;50.764;4.332;2022-10-18T05:37:46;16.10;99.90
25582;DHT22;13462;50.764;4.332;2022-10-18T05:40:12;16.10;99.90
25582;DHT22;13462;50.764;4.332;2022-10-18T05:42:38;16.10;99.90
25582;DHT22;13462;50.764;4.332;2022-10-18T05:45:04;16.00;99.90
25582;DHT22;13462;50.764;4.332;2022-10-18T05:47:30;16.10;99.90
25582;DHT22;13462;50.764;4.332;2022-10-18T05:49:55;16.10;99.90
25582;DHT22;13462;50.764;4.332;2022-10-18T05:52:21;15.90;99.90
25582;DHT22;13462;50.764;4.332;2022-10-18T05:54:46;15.80;99.90
25582;DHT22;13462;50.764;4.332;2022-10-18T05:57:12;15.60;99.90
25582;DHT22;13462;50.764;4.332;2022-10-18T05:59:37;15.60;99.90
25582;DHT22;13462;50.764;4.332;2022-10-18T06:02:03;15.50;99.90
25582;DHT22;13462;50.764;4.332;2022-10-18T06:04:28;15.20;99.90
25582;DHT22;13462;50.764;4.332;2022-10-18T06:06:54;15.10;99.90
25582;DHT22;13462;50.764;4.332;2022-10-18T06:09:20;15.10;99.90
25582;DHT22;13462;50.764;4.332;2022-10-18T06:11:46;15.20;99.90
25582;DHT22;13462;50.764;4.332;2022-10-18T06:14:11;15.10;99.90
25582;DHT22;13462;50.764;4.332;2022-10-18T06:16:37;15.00;99.90
25582;DHT22;13462;50.764;4.332;2022-10-18T06:19:03;15.00;99.90
25582;DHT22;13462;50.764;4.332;2022-10-18T06:21:28;15.00;99.90
25582;DHT22;13462;50.764;4.332;2022-10-18T06:23:56;15.00;99.90
25582;DHT22;13462;50.764;4.332;2022-10-18T06:26:22;15.00;99.90
25582;DHT22;13462;50.764;4.332;2022-10-18T06:28:48;15.00;99.90
25582;DHT22;13462;50.764;4.332;2022-10-18T06:31:14;15.10;99.90
25582;DHT22;13462;50.764;4.332;2022-10-18T06:33:40;15.20;99.90
25582;DHT22;13462;50.764;4.332;2022-10-18T06:36:07;15.30;99.90
25582;DHT22;13462;50.764;4.332;2022-10-18T06:38:34;15.30;99.90
25582;DHT22;13462;50.764;4.332;2022-10-18T06:41:01;15.30;99.90
25582;DHT22;13462;50.764;4.332;2022-10-18T06:43:27;15.40;99.90
25582;DHT22;13462;50.764;4.332;2022-10-18T06:45:53;15.40;99.90
25582;DHT22;13462;50.764;4.332;2022-10-18T06:48:20;15.40;99.90
25582;DHT22;13462;50.764;4.332;2022-10-18T06:50:58;15.40;99.90
25582;DHT22;13462;50.764;4.332;2022-10-18T06:53:25;15.50;99.90
25582;DHT22;13462;50.764;4.332;2022-10-18T06:55:51;15.50;99.90
25582;DHT22;13462;50.764;4.332;2022-10-18T06:58:17;15.50;99.90
25582;DHT22;13462;50.764;4.332;2022-10-18T07:00:43;15.50;99.90
25582;DHT22;13462;50.764;4.332;2022-10-18T07:03:10;15.60;99.90
25582;DHT22;13462;50.764;4.332;2022-10-18T07:05:36;15.60;99.90
25582;DHT22;13462;50.764;4.332;2022-10-18T07:08:01;15.70;99.90
25582;DHT22;13462;50.764;4.332;2022-10-18T07:10:27;15.70;99.90
25582;DHT22;13462;50.764;4.332;2022-10-18T07:12:53;15.70;99.90
25582;DHT22;13462;50.764;4.332;2022-10-18T07:15:18;15.70;99.90
25582;DHT22;13462;50.764;4.332;2022-10-18T07:17:46;15.70;99.90
25582;DHT22;13462;50.764;4.332;2022-10-18T07:20:13;15.70;99.90
25582;DHT22;13462;50.764;4.332;2022-10-18T07:22:39;15.70;99.90
25582;DHT22;13462;50.764;4.332;2022-10-18T07:25:05;15.70;99.90
25582;DHT22;13462;50.764;4.332;2022-10-18T07:27:34;15.80;99.90
25582;DHT22;13462;50.764;4.332;2022-10-18T07:30:00;15.80;99.90
25582;DHT22;13462;50.764;4.332;2022-10-18T07:32:25;15.90;99.90
25582;DHT22;13462;50.764;4.332;2022-10-18T07:34:51;15.90;99.90
25582;DHT22;13462;50.764;4.332;2022-10-18T07:37:16;15.90;99.90
25582;DHT22;13462;50.764;4.332;2022-10-18T07:39:42;16.00;99.90
25582;DHT22;13462;50.764;4.332;2022-10-18T07:42:07;16.20;99.90
25582;DHT22;13462;50.764;4.332;2022-10-18T07:44:33;16.50;99.90
25582;DHT22;13462;50.764;4.332;2022-10-18T07:46:58;17.10;99.90
25582;DHT22;13462;50.764;4.332;2022-10-18T07:49:24;18.20;99.90
25582;DHT22;13462;50.764;4.332;2022-10-18T07:51:49;19.10;99.90
25582;DHT22;13462;50.764;4.332;2022-10-18T07:54:15;20.20;99.90
25582;DHT22;13462;50.764;4.332;2022-10-18T07:56:41;21.30;99.90
25582;DHT22;13462;50.764;4.332;2022-10-18T07:59:08;22.70;99.90
25582;DHT22;13462;50.764;4.332;2022-10-18T08:01:35;24.80;99.90
25582;DHT22;13462;50.764;4.332;2022-10-18T08:04:01;26.20;99.90
25582;DHT22;13462;50.764;4.332;2022-10-18T08:06:26;27.30;99.90
25582;DHT22;13462;50.764;4.332;2022-10-18T08:08:52;28.80;99.90
25582;DHT22;13462;50.764;4.332;2022-10-18T08:11:20;30.30;99.00
25582;DHT22;13462;50.764;4.332;2022-10-18T08:13:46;31.80;94.70
25582;DHT22;13462;50.764;4.332;2022-10-18T08:16:14;32.80;92.00
25582;DHT22;13462;50.764;4.332;2022-10-18T08:18:40;33.60;89.10
25582;DHT22;13462;50.764;4.332;2022-10-18T08:21:08;33.20;82.90
25582;DHT22;13462;50.764;4.332;2022-10-18T08:23:34;33.40;83.40
25582;DHT22;13462;50.764;4.332;2022-10-18T08:26:01;33.70;84.20
25582;DHT22;13462;50.764;4.332;2022-10-18T08:28:27;34.10;81.30
25582;DHT22;13462;50.764;4.332;2022-10-18T08:30:53;34.90;77.90
25582;DHT22;13462;50.764;4.332;2022-10-18T08:33:19;35.10;75.70
25582;DHT22;13462;50.764;4.332;2022-10-18T08:35:56;35.80;71.50
25582;DHT22;13462;50.764;4.332;2022-10-18T08:38:23;36.20;70.10
25582;DHT22;13462;50.764;4.332;2022-10-18T08:40:48;36.30;69.20
25582;DHT22;13462;50.764;4.332;2022-10-18T08:43:22;36.20;67.60
25582;DHT22;13462;50.764;4.332;2022-10-18T08:45:50;36.50;68.00
25582;DHT22;13462;50.764;4.332;2022-10-18T08:48:42;36.70;67.40
25582;DHT22;13462;50.764;4.332;2022-10-18T08:51:47;37.30;64.90
25582;DHT22;13462;50.764;4.332;2022-10-18T08:56:48;37.80;61.80
25582;DHT22;13462;50.764;4.332;2022-10-18T08:59:18;37.90;60.10
25582;DHT22;13462;50.764;4.332;2022-10-18T09:02:20;37.90;61.00
25582;DHT22;13462;50.764;4.332;2022-10-18T09:07:44;38.80;56.50
25582;DHT22;13462;50.764;4.332;2022-10-18T09:10:33;38.60;58.40
25582;DHT22;13462;50.764;4.332;2022-10-18T09:16:19;38.40;58.20
25582;DHT22;13462;50.764;4.332;2022-10-18T09:21:52;39.00;56.10
25582;DHT22;13462;50.764;4.332;2022-10-18T09:27:03;38.50;55.70
25582;DHT22;13462;50.764;4.332;2022-10-18T09:29:56;38.60;54.80
25582;DHT22;13462;50.764;4.332;2022-10-18T09:35:27;38.50;53.50
25582;DHT22;13462;50.764;4.332;2022-10-18T09:38:01;39.10;53.70
25582;DHT22;13462;50.764;4.332;2022-10-18T09:40:29;39.30;53.60
25582;DHT22;13462;50.764;4.332;2022-10-18T09:43:05;39.50;52.20
25582;DHT22;13462;50.764;4.332;2022-10-18T09:45:34;39.40;52.90
25582;DHT22;13462;50.764;4.332;2022-10-18T09:51:02;39.50;52.00
25582;DHT22;13462;50.764;4.332;2022-10-18T09:59:02;39.60;50.80
25582;DHT22;13462;50.764;4.332;2022-10-18T10:01:29;38.90;50.00
25582;DHT22;13462;50.764;4.332;2022-10-18T10:03:56;38.80;50.70
25582;DHT22;13462;50.764;4.332;2022-10-18T10:06:28;38.60;51.30
25582;DHT22;13462;50.764;4.332;2022-10-18T10:09:05;38.50;50.60
25582;DHT22;13462;50.764;4.332;2022-10-18T10:11:37;37.50;51.90
25582;DHT22;13462;50.764;4.332;2022-10-18T10:14:20;37.60;53.60
25582;DHT22;13462;50.764;4.332;2022-10-18T10:17:02;38.20;52.90
25582;DHT22;13462;50.764;4.332;2022-10-18T10:19:51;38.40;52.00
25582;DHT22;13462;50.764;4.332;2022-10-18T10:22:26;38.70;51.90
25582;DHT22;13462;50.764;4.332;2022-10-18T10:24:56;39.30;50.90
25582;DHT22;13462;50.764;4.332;2022-10-18T10:27:37;38.70;48.90
25582;DHT22;13462;50.764;4.332;2022-10-18T10:30:29;38.20;51.90
25582;DHT22;13462;50.764;4.332;2022-10-18T10:32:55;38.20;51.40
25582;DHT22;13462;50.764;4.332;2022-10-18T10:35:36;38.00;51.50
25582;DHT22;13462;50.764;4.332;2022-10-18T10:38:03;37.60;52.00
25582;DHT22;13462;50.764;4.332;2022-10-18T10:40:34;37.50;51.00
25582;DHT22;13462;50.764;4.332;2022-10-18T10:43:13;36.00;51.70
25582;DHT22;13462;50.764;4.332;2022-10-18T10:45:55;36.50;52.20
25582;DHT22;13462;50.764;4.332;2022-10-18T10:48:21;36.10;52.30
25582;DHT22;13462;50.764;4.332;2022-10-18T10:51:03;35.40;54.10
25582;DHT22;13462;50.764;4.332;2022-10-18T10:55:59;33.30;56.50
25582;DHT22;13462;50.764;4.332;2022-10-18T10:58:27;31.60;58.40
25582;DHT22;13462;50.764;4.332;2022-10-18T11:00:55;30.70;60.30
25582;DHT22;13462;50.764;4.332;2022-10-18T11:03:22;29.70;60.30
25582;DHT22;13462;50.764;4.332;2022-10-18T11:05:50;29.00;64.90
25582;DHT22;13462;50.764;4.332;2022-10-18T11:08:30;28.70;64.80
25582;DHT22;13462;50.764;4.332;2022-10-18T11:13:48;27.80;65.60
25582;DHT22;13462;50.764;4.332;2022-10-18T11:16:29;26.90;68.90
25582;DHT22;13462;50.764;4.332;2022-10-18T11:18:57;26.20;69.70
25582;DHT22;13462;50.764;4.332;2022-10-18T11:21:27;25.70;68.70
25582;DHT22;13462;50.764;4.332;2022-10-18T11:23:53;25.20;72.30
25582;DHT22;13462;50.764;4.332;2022-10-18T11:31:57;24.20;74.60
25582;DHT22;13462;50.764;4.332;2022-10-18T11:45:47;24.20;78.00
25582;DHT22;13462;50.764;4.332;2022-10-18T11:50:49;26.80;73.80
25582;DHT22;13462;50.764;4.332;2022-10-18T11:56:20;27.40;69.70
25582;DHT22;13462;50.764;4.332;2022-10-18T12:01:32;28.50;68.00
25582;DHT22;13462;50.764;4.332;2022-10-18T12:06:37;29.90;64.00
25582;DHT22;13462;50.764;4.332;2022-10-18T12:09:16;31.30;62.80
25582;DHT22;13462;50.764;4.332;2022-10-18T12:11:49;31.30;60.60
25582;DHT22;13462;50.764;4.332;2022-10-18T12:14:32;31.40;60.70
25582;DHT22;13462;50.764;4.332;2022-10-18T12:17:03;32.10;59.50
25582;DHT22;13462;50.764;4.332;2022-10-18T12:19:32;33.40;57.70
25582;DHT22;13462;50.764;4.332;2022-10-18T12:22:17;34.40;56.90
25582;DHT22;13462;50.764;4.332;2022-10-18T12:24:45;35.00;56.00
25582;DHT22;13462;50.764;4.332;2022-10-18T12:27:13;35.20;53.80
25582;DHT22;13462;50.764;4.332;2022-10-18T12:29:52;35.70;54.30
25582;DHT22;13462;50.764;4.332;2022-10-18T12:32:29;36.60;53.40
25582;DHT22;13462;50.764;4.332;2022-10-18T12:35:22;37.10;52.20
25582;DHT22;13462;50.764;4.332;2022-10-18T12:40:35;37.80;50.80
25582;DHT22;13462;50.764;4.332;2022-10-18T12:43:14;37.70;49.70
25582;DHT22;13462;50.764;4.332;2022-10-18T12:48:49;37.70;50.20
25582;DHT22;13462;50.764;4.332;2022-10-18T12:51:24;37.90;48.90
25582;DHT22;13462;50.764;4.332;2022-10-18T12:56:33;38.30;48.90
25582;DHT22;13462;50.764;4.332;2022-10-18T13:04:32;37.60;49.70
25582;DHT22;13462;50.764;4.332;2022-10-18T13:09:37;37.50;48.00
25582;DHT22;13462;50.764;4.332;2022-10-18T13:14:42;37.20;48.80
25582;DHT22;13462;50.764;4.332;2022-10-18T13:17:36;36.40;49.10
25582;DHT22;13462;50.764;4.332;2022-10-18T13:26:32;35.40;51.40
25582;DHT22;13462;50.764;4.332;2022-10-18T13:34:39;35.30;51.60
25582;DHT22;13462;50.764;4.332;2022-10-18T13:39:46;33.80;51.60
25582;DHT22;13462;50.764;4.332;2022-10-18T13:42:27;33.20;54.50
25582;DHT22;13462;50.764;4.332;2022-10-18T13:44:54;33.20;54.90
25582;DHT22;13462;50.764;4.332;2022-10-18T13:47:39;32.70;54.00
25582;DHT22;13462;50.764;4.332;2022-10-18T13:50:29;32.60;55.60
25582;DHT22;13462;50.764;4.332;2022-10-18T14:02:11;31.80;56.50
25582;DHT22;13462;50.764;4.332;2022-10-18T14:07:33;30.60;59.30
25582;DHT22;13462;50.764;4.332;2022-10-18T14:10:00;30.20;58.80
25582;DHT22;13462;50.764;4.332;2022-10-18T14:12:52;29.50;59.30
25582;DHT22;13462;50.764;4.332;2022-10-18T14:15:36;28.70;60.70
25582;DHT22;13462;50.764;4.332;2022-10-18T14:18:17;28.40;63.20
25582;DHT22;13462;50.764;4.332;2022-10-18T14:21:10;28.20;63.80
25582;DHT22;13462;50.764;4.332;2022-10-18T14:23:41;28.20;63.30
25582;DHT22;13462;50.764;4.332;2022-10-18T14:26:16;27.80;65.50
25582;DHT22;13462;50.764;4.332;2022-10-18T14:29:04;27.40;66.20
25582;DHT22;13462;50.764;4.332;2022-10-18T14:31:29;26.90;68.90
25582;DHT22;13462;50.764;4.332;2022-10-18T14:33:57;26.30;72.20
25582;DHT22;13462;50.764;4.332;2022-10-18T14:36:35;25.50;74.30
25582;DHT22;13462;50.764;4.332;2022-10-18T14:39:04;24.90;77.20
25582;DHT22;13462;50.764;4.332;2022-10-18T14:41:32;24.20;81.20
25582;DHT22;13462;50.764;4.332;2022-10-18T14:44:20;23.80;81.50
25582;DHT22;13462;50.764;4.332;2022-10-18T14:47:19;23.60;82.90
25582;DHT22;13462;50.764;4.332;2022-10-18T14:49:47;23.30;85.90
25582;DHT22;13462;50.764;4.332;2022-10-18T14:52:22;23.20;86.70
25582;DHT22;13462;50.764;4.332;2022-10-18T14:54:49;22.80;89.30
25582;DHT22;13462;50.764;4.332;2022-10-18T14:57:18;22.50;89.70
25582;DHT22;13462;50.764;4.332;2022-10-18T14:59:49;22.10;90.30
25582;DHT22;13462;50.764;4.332;2022-10-18T15:02:22;21.90;91.00
25582;DHT22;13462;50.764;4.332;2022-10-18T15:05:05;21.60;91.90
25582;DHT22;13462;50.764;4.332;2022-10-18T15:07:49;21.30;93.00
25582;DHT22;13462;50.764;4.332;2022-10-18T15:10:24;21.20;94.10
25582;DHT22;13462;50.764;4.332;2022-10-18T15:12:52;21.10;94.60
25582;DHT22;13462;50.764;4.332;2022-10-18T15:15:24;21.00;95.30
25582;DHT22;13462;50.764;4.332;2022-10-18T15:17:54;20.90;96.00
25582;DHT22;13462;50.764;4.332;2022-10-18T15:20:38;20.70;96.90
25582;DHT22;13462;50.764;4.332;2022-10-18T15:23:23;20.60;97.40
25582;DHT22;13462;50.764;4.332;2022-10-18T15:25:50;20.50;98.40
25582;DHT22;13462;50.764;4.332;2022-10-18T15:28:44;20.40;99.50
25582;DHT22;13462;50.764;4.332;2022-10-18T15:31:36;20.30;99.90
25582;DHT22;13462;50.764;4.332;2022-10-18T15:36:57;20.20;99.90
25582;DHT22;13462;50.764;4.332;2022-10-18T15:39:28;20.20;99.90
25582;DHT22;13462;50.764;4.332;2022-10-18T15:41:57;20.20;99.90
25582;DHT22;13462;50.764;4.332;2022-10-18T15:45:19;20.10;99.90
25582;DHT22;13462;50.764;4.332;2022-10-18T15:48:02;20.00;99.90
25582;DHT22;13462;50.764;4.332;2022-10-18T15:51:04;19.80;99.90
25582;DHT22;13462;50.764;4.332;2022-10-18T15:56:36;19.70;99.90
25582;DHT22;13462;50.764;4.332;2022-10-18T15:59:24;19.60;99.90
25582;DHT22;13462;50.764;4.332;2022-10-18T16:01:55;19.50;99.90
25582;DHT22;13462;50.764;4.332;2022-10-18T16:04:26;19.30;99.90
25582;DHT22;13462;50.764;4.332;2022-10-18T16:06:56;19.20;99.90
25582;DHT22;13462;50.764;4.332;2022-10-18T16:09:27;18.90;99.90
25582;DHT22;13462;50.764;4.332;2022-10-18T16:11:59;18.80;99.90
25582;DHT22;13462;50.764;4.332;2022-10-18T16:14:25;18.70;99.90
25582;DHT22;13462;50.764;4.332;2022-10-18T16:16:54;18.50;99.90
25582;DHT22;13462;50.764;4.332;2022-10-18T16:19:23;18.30;99.90
25582;DHT22;13462;50.764;4.332;2022-10-18T16:21:50;18.30;99.90
25582;DHT22;13462;50.764;4.332;2022-10-18T16:24:31;18.10;99.90
25582;DHT22;13462;50.764;4.332;2022-10-18T16:26:57;17.90;99.90
25582;DHT22;13462;50.764;4.332;2022-10-18T16:32:03;17.60;99.90
25582;DHT22;13462;50.764;4.332;2022-10-18T16:34:28;17.60;99.90
25582;DHT22;13462;50.764;4.332;2022-10-18T16:36:56;17.40;99.90
25582;DHT22;13462;50.764;4.332;2022-10-18T16:39:22;17.20;99.90
25582;DHT22;13462;50.764;4.332;2022-10-18T16:41:49;17.10;99.90
25582;DHT22;13462;50.764;4.332;2022-10-18T16:44:16;17.00;99.90
25582;DHT22;13462;50.764;4.332;2022-10-18T16:46:44;16.80;99.90
25582;DHT22;13462;50.764;4.332;2022-10-18T16:49:19;16.80;99.90
25582;DHT22;13462;50.764;4.332;2022-10-18T16:51:45;16.60;99.90
25582;DHT22;13462;50.764;4.332;2022-10-18T16:54:11;16.60;99.90
25582;DHT22;13462;50.764;4.332;2022-10-18T16:56:38;16.50;99.90
25582;DHT22;13462;50.764;4.332;2022-10-18T16:59:04;16.40;99.90
25582;DHT22;13462;50.764;4.332;2022-10-18T17:04:19;16.10;99.90
25582;DHT22;13462;50.764;4.332;2022-10-18T17:06:45;16.10;99.90
25582;DHT22;13462;50.764;4.332;2022-10-18T17:09:13;16.00;99.90
25582;DHT22;13462;50.764;4.332;2022-10-18T17:11:59;16.00;99.90
25582;DHT22;13462;50.764;4.332;2022-10-18T17:17:04;15.70;99.90
25582;DHT22;13462;50.764;4.332;2022-10-18T17:19:41;15.60;99.90
25582;DHT22;13462;50.764;4.332;2022-10-18T17:22:07;15.60;99.90
25582;DHT22;13462;50.764;4.332;2022-10-18T17:24:33;15.60;99.90
25582;DHT22;13462;50.764;4.332;2022-10-18T17:26:58;15.60;99.90
25582;DHT22;13462;50.764;4.332;2022-10-18T17:29:24;15.60;99.90
25582;DHT22;13462;50.764;4.332;2022-10-18T17:31:50;15.60;99.90
25582;DHT22;13462;50.764;4.332;2022-10-18T17:34:16;15.60;99.90
25582;DHT22;13462;50.764;4.332;2022-10-18T17:40:30;15.50;99.90
25582;DHT22;13462;50.764;4.332;2022-10-18T17:43:00;15.50;99.90
25582;DHT22;13462;50.764;4.332;2022-10-18T17:45:26;15.40;99.90
25582;DHT22;13462;50.764;4.332;2022-10-18T17:47:52;15.40;99.90
25582;DHT22;13462;50.764;4.332;2022-10-18T17:50:21;15.30;99.90
25582;DHT22;13462;50.764;4.332;2022-10-18T17:52:47;15.20;99.90
25582;DHT22;13462;50.764;4.332;2022-10-18T17:55:13;15.10;99.90
25582;DHT22;13462;50.764;4.332;2022-10-18T17:57:40;15.10;99.90
25582;DHT22;13462;50.764;4.332;2022-10-18T18:00:09;15.00;99.90
25582;DHT22;13462;50.764;4.332;2022-10-18T18:02:36;15.10;99.90
25582;DHT22;13462;50.764;4.332;2022-10-18T18:05:10;15.00;99.90
25582;DHT22;13462;50.764;4.332;2022-10-18T18:07:44;15.10;99.90
25582;DHT22;13462;50.764;4.332;2022-10-18T18:10:18;15.10;99.90
25582;DHT22;13462;50.764;4.332;2022-10-18T18:12:46;15.10;99.90
25582;DHT22;13462;50.764;4.332;2022-10-18T18:15:14;14.90;99.90